Impacts TAF Board INFO
FOR SITUATIONAL AWARENESS. NOT TO BE USED FOR FLIGHT PLANNING PURPOSES.
IDs:

KMSY - New Orleans/Armstron, LA, US

Issued at 0525 UTC 19 Nov 2017
Updated at 0657 UTC 19 Nov 2017
Potential Impact None Slight Moderate High
Time0653Z 19/07Z 19/08Z 19/09Z 19/10Z 19/11Z 19/12Z 19/13Z 19/14Z 19/15Z 19/16Z 19/17Z 19/18Z 19/19Z>>
Type OBS PRVL PRVL PRVL PRVL PRVL PRVL PRVL PRVL PRVL PRVL PRVL PRVL PRVL
VIS 10 >6 >6 >6 >6 >6 >6 >6 >6 >6 >6 >6 >6 >6
CIG 85 60 60 60 -- -- -- -- -- -- -- -- -- --
Cover BKN BKN BKN BKN FEW FEW FEW FEW FEW FEW FEW FEW FEW SKC
FltCat VFR VFR VFR VFR VFR VFR VFR VFR VFR VFR VFR VFR VFR VFR
WX -- -- -- -- -- -- -- -- -- -- -- -- -- --
WDir 360 360 360 360 360 360 360 360 360 360 360 360 360 360
WSpd 15 17 17 17 16 16 16 16 16 16 16 16 16 12
WGst 23 25 25 25 24 24 24 24 24 24 24 24 24 --

Raw TAF
KMSY 190525Z 1906/2012 36017G25KT P6SM BKN060
  FM191000 36016G24KT P6SM FEW200
  FM191900 36012KT P6SM SKC
  FM200600 03009KT P6SM SCT250


Raw METAR
KMSY 190653Z 36015G23KT 10SM BKN085 16/09 A3004 RMK AO2 PK WND 35028/0606 SLP176 T01610089
KMSY 190553Z 35015G30KT 10SM OVC060 17/09 A3003 RMK AO2 PK WND 35030/0548 SLP170 60000 T01720094 10250 20172 402830172 51044
KMSY 190453Z 35013G21KT 10SM SCT029 OVC049 19/13 A3000 RMK AO2 SLP161 T01890133
KMSY 190430Z 35015G22KT 10SM FEW015 BKN025 OVC045 19/14 A2999 RMK AO2 T01940139
KMSY 190353Z 34011G20KT 10SM OVC040 19/16 A2996 RMK AO2 PK WND 29029/0315 WSHFT 0314 RAB25E48 SLP149 FROPA P0000 T01940161
KMSY 190332Z 34015G24KT 9SM -RA FEW019 BKN034 BKN050 20/17 A2994 RMK AO2 PK WND 29029/0315 WSHFT 0314 RAB25 FROPA P0000 T02000167

METAR Board
Radar Display
Forecast Discussion

FOR SITUATIONAL AWARENESS. NOT TO BE USED FOR FLIGHT PLANNING PURPOSES.